createdAt,value
2022-09-30T00:01:41.456Z,12.80
2022-09-30T00:04:11.424Z,12.00
2022-09-30T00:06:39.980Z,12.20
2022-09-30T00:09:11.541Z,12.70
2022-09-30T00:11:42.320Z,12.45
2022-09-30T00:14:14.704Z,12.60
2022-09-30T00:16:43.807Z,13.23
2022-09-30T00:19:13.868Z,13.20
2022-09-30T00:21:42.527Z,12.48
2022-09-30T00:24:11.287Z,14.52
2022-09-30T00:26:42.088Z,13.13
2022-09-30T00:29:11.057Z,14.20
2022-09-30T00:31:39.791Z,12.25
2022-09-30T00:34:08.943Z,13.60
2022-09-30T00:36:41.759Z,13.32
2022-09-30T00:39:11.507Z,13.75
2022-09-30T00:41:41.678Z,13.35
2022-09-30T00:44:51.127Z,12.98
2022-09-30T00:47:37.610Z,13.32
2022-09-30T00:50:12.346Z,12.73
2022-09-30T00:52:40.601Z,13.30
2022-09-30T00:55:11.818Z,12.10
2022-09-30T00:57:42.563Z,13.43
2022-09-30T01:00:11.561Z,13.85
2022-09-30T01:02:40.337Z,14.13
2022-09-30T01:05:10.337Z,12.35
2022-09-30T01:07:38.959Z,12.93
2022-09-30T01:10:08.069Z,12.45
2022-09-30T01:12:36.654Z,13.00
2022-09-30T01:15:09.984Z,13.32
2022-09-30T01:17:42.887Z,12.85
2022-09-30T01:20:29.801Z,13.30
2022-09-30T01:23:05.714Z,13.63
2022-09-30T01:25:55.922Z,13.73
2022-09-30T01:28:52.234Z,15.20
2022-09-30T01:31:31.835Z,12.38
2022-09-30T01:34:04.767Z,15.52
2022-09-30T01:36:43.438Z,14.18
2022-09-30T01:39:19.940Z,14.50
2022-09-30T01:41:53.290Z,13.35
2022-09-30T01:44:26.345Z,14.05
2022-09-30T01:46:58.260Z,13.85
2022-09-30T01:49:32.026Z,12.02
2022-09-30T01:52:04.133Z,11.90
2022-09-30T01:54:35.337Z,12.77
2022-09-30T01:57:05.205Z,14.35
2022-09-30T01:59:35.361Z,13.32
2022-09-30T02:02:08.453Z,14.80
2022-09-30T02:04:40.742Z,15.52
2022-09-30T02:07:12.038Z,15.65
2022-09-30T02:09:43.082Z,14.95
2022-09-30T02:12:14.989Z,15.20
2022-09-30T02:14:46.050Z,14.43
2022-09-30T02:17:17.253Z,16.42
2022-09-30T02:19:46.939Z,15.95
2022-09-30T02:22:17.061Z,16.73
2022-09-30T02:24:47.459Z,15.05
2022-09-30T02:27:18.537Z,14.70
2022-09-30T02:29:50.415Z,12.95
2022-09-30T02:32:22.508Z,12.55
2022-09-30T02:34:52.794Z,13.15
2022-09-30T02:37:22.466Z,12.07
2022-09-30T02:39:53.012Z,11.57
2022-09-30T02:42:23.165Z,11.45
2022-09-30T02:44:52.115Z,12.40
2022-09-30T02:47:26.946Z,13.52
2022-09-30T02:49:58.802Z,12.73
2022-09-30T02:52:29.439Z,13.13
2022-09-30T02:55:04.368Z,13.80
2022-09-30T02:57:38.174Z,14.10
2022-09-30T03:00:12.529Z,16.70
2022-09-30T03:02:43.048Z,15.85
2022-09-30T03:05:11.830Z,15.73
2022-09-30T03:07:40.266Z,17.50
2022-09-30T03:10:14.801Z,18.20
2022-09-30T03:12:48.537Z,17.77
2022-09-30T03:15:26.543Z,19.58
2022-09-30T03:18:07.051Z,17.13
2022-09-30T03:20:43.116Z,18.48
2022-09-30T03:23:22.647Z,16.50
2022-09-30T03:25:55.268Z,15.77
2022-09-30T03:28:26.724Z,14.50
2022-09-30T03:31:00.998Z,13.35
2022-09-30T03:33:34.226Z,12.55
2022-09-30T03:36:04.116Z,12.17
2022-09-30T03:38:40.620Z,12.45
2022-09-30T03:41:12.108Z,14.38
2022-09-30T03:43:44.440Z,15.18
2022-09-30T03:46:18.326Z,16.00
2022-09-30T03:48:48.607Z,14.27
2022-09-30T03:51:17.195Z,16.70
2022-09-30T03:53:47.284Z,15.65
2022-09-30T03:56:16.740Z,16.45
2022-09-30T03:58:45.826Z,17.45
2022-09-30T04:01:21.883Z,17.33
2022-09-30T04:03:53.296Z,18.35
2022-09-30T04:06:24.775Z,20.63
2022-09-30T04:08:54.286Z,16.50
2022-09-30T04:11:23.265Z,17.17
2022-09-30T04:13:54.349Z,17.63
2022-09-30T04:16:22.899Z,17.98
2022-09-30T04:18:52.994Z,16.45
2022-09-30T04:21:21.604Z,15.85
2022-09-30T04:23:50.721Z,16.40
2022-09-30T04:26:20.660Z,15.65
2022-09-30T04:28:49.416Z,13.75
2022-09-30T04:31:21.837Z,14.55
2022-09-30T04:33:51.921Z,13.70
2022-09-30T04:36:22.270Z,16.23
2022-09-30T04:38:51.480Z,14.07
2022-09-30T04:41:20.045Z,15.68
2022-09-30T04:43:49.682Z,15.13
2022-09-30T04:46:18.755Z,15.95
2022-09-30T04:48:47.882Z,14.05
2022-09-30T04:51:16.767Z,15.23
2022-09-30T04:53:46.879Z,15.23
2022-09-30T04:56:17.024Z,15.82
2022-09-30T04:58:46.602Z,15.55
2022-09-30T05:01:16.894Z,15.05
2022-09-30T05:03:45.714Z,16.27
2022-09-30T05:06:15.021Z,16.17
2022-09-30T05:08:45.966Z,19.70
2022-09-30T05:11:18.891Z,18.45
2022-09-30T05:13:48.052Z,19.85
2022-09-30T05:16:16.836Z,17.30
2022-09-30T05:18:47.316Z,17.52
2022-09-30T05:21:16.239Z,18.33
2022-09-30T05:23:45.792Z,19.23
2022-09-30T05:26:14.411Z,19.00
2022-09-30T05:28:46.351Z,20.40
2022-09-30T05:31:14.833Z,20.27
2022-09-30T05:33:51.704Z,15.68
2022-09-30T05:36:23.159Z,16.60
2022-09-30T05:38:53.211Z,15.82
2022-09-30T05:41:22.369Z,17.30
2022-09-30T05:44:01.771Z,17.55
2022-09-30T05:46:30.573Z,16.48
2022-09-30T05:48:59.196Z,16.50
2022-09-30T05:51:27.990Z,15.00
2022-09-30T05:53:56.465Z,13.68
2022-09-30T05:56:24.967Z,15.02
2022-09-30T05:58:55.076Z,14.68
2022-09-30T06:01:23.985Z,14.43
2022-09-30T06:03:53.011Z,13.80
2022-09-30T06:06:21.970Z,12.88
2022-09-30T06:08:51.170Z,13.27
2022-09-30T06:11:20.416Z,15.00
2022-09-30T06:13:49.614Z,15.55
2022-09-30T06:16:20.162Z,13.73
2022-09-30T06:18:48.635Z,17.15
2022-09-30T06:21:18.151Z,17.73
2022-09-30T06:23:46.999Z,16.90
2022-09-30T06:26:16.310Z,15.57
2022-09-30T06:28:45.464Z,14.65
2022-09-30T06:31:15.063Z,13.60
2022-09-30T06:33:44.926Z,13.65
2022-09-30T06:36:13.631Z,14.35
2022-09-30T06:38:42.830Z,13.43
2022-09-30T06:41:11.252Z,14.82
2022-09-30T06:43:46.945Z,14.40
2022-09-30T06:46:30.290Z,17.95
2022-09-30T06:49:11.615Z,14.75
2022-09-30T06:51:42.489Z,17.23
2022-09-30T06:54:11.450Z,18.65
2022-09-30T06:56:39.673Z,16.25
2022-09-30T06:59:08.775Z,17.02
2022-09-30T07:01:37.473Z,21.13
2022-09-30T07:04:10.254Z,23.13
2022-09-30T07:06:39.681Z,20.60
2022-09-30T07:09:09.539Z,17.33
2022-09-30T07:11:38.896Z,19.48
2022-09-30T07:14:07.380Z,20.50
2022-09-30T07:16:36.094Z,18.45
2022-09-30T07:19:05.173Z,19.58
2022-09-30T07:21:35.228Z,21.30
2022-09-30T07:24:03.776Z,15.75
2022-09-30T07:26:33.185Z,13.77
2022-09-30T07:29:03.408Z,13.57
2022-09-30T07:31:34.602Z,13.90
2022-09-30T07:34:04.363Z,15.75
2022-09-30T07:36:37.225Z,15.35
2022-09-30T07:39:07.070Z,15.00
2022-09-30T07:41:36.904Z,19.27
2022-09-30T07:44:06.902Z,17.20
2022-09-30T07:46:36.726Z,18.58
2022-09-30T07:49:09.077Z,18.25
2022-09-30T07:51:39.927Z,17.77
2022-09-30T07:54:09.577Z,16.23
2022-09-30T07:57:08.208Z,15.65
2022-09-30T07:59:28.523Z,16.25
2022-09-30T08:01:56.913Z,16.23
2022-09-30T08:04:25.915Z,19.33
2022-09-30T08:06:56.859Z,19.10
2022-09-30T08:09:26.126Z,19.63
2022-09-30T08:11:54.846Z,18.65
2022-09-30T08:14:24.437Z,18.95
2022-09-30T08:16:53.387Z,17.13
2022-09-30T08:19:22.470Z,19.35
2022-09-30T08:21:53.263Z,22.45
2022-09-30T08:24:23.485Z,22.55
2022-09-30T08:26:52.814Z,22.48
2022-09-30T08:29:42.709Z,25.95
2022-09-30T08:32:09.502Z,24.85
2022-09-30T08:34:37.882Z,22.02
2022-09-30T08:37:09.549Z,22.23
2022-09-30T08:39:40.126Z,25.02
2022-09-30T08:42:48.377Z,25.98
2022-09-30T08:45:23.746Z,25.10
2022-09-30T08:47:56.400Z,22.73
2022-09-30T08:50:26.687Z,24.27
2022-09-30T08:52:57.381Z,21.85
2022-09-30T08:55:28.183Z,23.15
2022-09-30T08:57:57.605Z,23.77
2022-09-30T09:00:26.595Z,23.60
2022-09-30T09:02:56.759Z,23.33
2022-09-30T09:05:33.685Z,23.67
2022-09-30T09:08:05.134Z,23.30
2022-09-30T09:10:41.259Z,21.27
2022-09-30T09:13:16.018Z,23.65
2022-09-30T09:15:51.156Z,25.20
2022-09-30T09:18:32.085Z,23.27
2022-09-30T09:21:01.084Z,23.50
2022-09-30T09:23:29.428Z,23.77
2022-09-30T09:26:00.297Z,22.98
2022-09-30T09:28:33.888Z,22.15
2022-09-30T09:31:03.240Z,21.73
2022-09-30T09:33:33.046Z,20.73
2022-09-30T09:36:09.288Z,22.38
2022-09-30T09:38:41.576Z,22.90
2022-09-30T09:41:17.320Z,27.08
2022-09-30T09:43:53.089Z,25.60
2022-09-30T09:46:24.879Z,26.42
2022-09-30T09:49:21.673Z,26.08
2022-09-30T09:51:50.776Z,26.35
2022-09-30T09:54:20.795Z,27.50
2022-09-30T09:56:55.004Z,28.38
2022-09-30T09:59:24.120Z,28.40
2022-09-30T10:01:54.407Z,27.35
2022-09-30T10:04:24.541Z,28.55
2022-09-30T10:06:54.578Z,26.08
2022-09-30T10:09:33.810Z,26.15
2022-09-30T10:12:29.269Z,25.65
2022-09-30T10:15:02.204Z,24.50
2022-09-30T10:17:33.142Z,23.45
2022-09-30T10:20:04.840Z,22.95
2022-09-30T10:22:33.453Z,25.73
2022-09-30T10:25:22.882Z,26.05
2022-09-30T10:27:57.404Z,24.50
2022-09-30T10:30:36.364Z,20.90
2022-09-30T10:33:05.032Z,19.88
2022-09-30T10:35:33.782Z,19.50
2022-09-30T10:38:02.891Z,20.88
2022-09-30T10:40:31.299Z,19.13
2022-09-30T10:43:00.872Z,19.67
2022-09-30T10:45:31.481Z,20.05
2022-09-30T10:47:59.588Z,23.85
2022-09-30T10:50:28.729Z,24.63
2022-09-30T10:52:58.177Z,28.52
2022-09-30T10:55:32.880Z,24.75
2022-09-30T10:58:22.467Z,25.80
2022-09-30T11:00:51.616Z,24.63
2022-09-30T11:03:21.873Z,23.75
2022-09-30T11:05:51.326Z,22.65
2022-09-30T11:08:21.250Z,21.70
2022-09-30T11:10:52.572Z,23.00
2022-09-30T11:13:25.688Z,21.27
2022-09-30T11:15:59.423Z,23.77
2022-09-30T11:18:31.280Z,20.95
2022-09-30T11:21:02.103Z,20.50
2022-09-30T11:23:32.321Z,18.60
2022-09-30T11:26:03.676Z,18.40
2022-09-30T11:28:40.749Z,20.55
2022-09-30T11:31:14.758Z,19.05
2022-09-30T11:33:49.926Z,18.27
2022-09-30T11:36:22.620Z,17.98
2022-09-30T11:39:05.133Z,17.88
2022-09-30T11:41:35.030Z,14.82
2022-09-30T11:44:10.378Z,13.32
2022-09-30T11:47:17.138Z,8.35
2022-09-30T11:49:55.678Z,9.00
2022-09-30T11:52:27.588Z,10.93
2022-09-30T11:55:06.587Z,11.00
2022-09-30T11:57:38.480Z,10.07
2022-09-30T12:00:11.699Z,12.20
2022-09-30T12:02:41.148Z,12.13
2022-09-30T12:05:12.238Z,12.57
2022-09-30T12:07:44.295Z,12.88
2022-09-30T12:10:22.887Z,11.93
2022-09-30T12:12:53.972Z,12.75
2022-09-30T12:15:26.419Z,11.18
2022-09-30T12:17:59.921Z,10.45
2022-09-30T12:20:30.379Z,10.50
2022-09-30T12:23:01.850Z,9.65
2022-09-30T12:25:32.737Z,9.70
2022-09-30T12:28:24.831Z,11.07
2022-09-30T12:31:00.160Z,9.80
2022-09-30T12:33:35.176Z,8.75
2022-09-30T12:36:22.800Z,9.80
2022-09-30T12:38:57.332Z,9.43
2022-09-30T12:41:42.822Z,5.78
2022-09-30T12:44:55.067Z,5.82
2022-09-30T12:47:36.779Z,5.18
2022-09-30T12:50:07.276Z,4.90
2022-09-30T12:52:37.427Z,4.93
2022-09-30T12:55:08.983Z,3.83
2022-09-30T12:57:41.359Z,4.85
2022-09-30T13:00:16.510Z,5.47
2022-09-30T13:02:48.456Z,5.30
2022-09-30T13:05:54.328Z,4.47
2022-09-30T13:08:41.611Z,4.85
2022-09-30T13:11:33.527Z,3.03
2022-09-30T13:14:12.902Z,3.08
2022-09-30T13:17:01.600Z,3.53
2022-09-30T13:19:36.653Z,3.67
2022-09-30T13:22:54.413Z,4.00
2022-09-30T13:25:22.819Z,4.18
2022-09-30T13:27:53.992Z,5.05
2022-09-30T13:30:43.327Z,4.18
2022-09-30T13:33:32.134Z,2.55
2022-09-30T13:36:10.587Z,2.47
2022-09-30T13:38:41.263Z,2.40
2022-09-30T13:41:16.774Z,2.85
2022-09-30T13:43:46.506Z,2.80
2022-09-30T13:46:24.531Z,2.97
2022-09-30T13:48:53.790Z,5.28
2022-09-30T13:51:24.550Z,2.95
2022-09-30T13:53:54.550Z,2.55
2022-09-30T13:56:25.100Z,3.35
2022-09-30T13:59:15.968Z,1.75
2022-09-30T14:02:00.327Z,2.80
2022-09-30T14:07:10.706Z,2.95
2022-09-30T14:12:30.510Z,2.15
2022-09-30T14:15:27.907Z,1.95
2022-09-30T14:18:24.433Z,2.10
2022-09-30T14:21:13.637Z,1.90
2022-09-30T14:23:43.662Z,1.75
2022-09-30T14:26:21.867Z,2.60
2022-09-30T14:28:53.129Z,2.08
2022-09-30T14:31:21.951Z,1.63
2022-09-30T14:33:50.924Z,2.05
2022-09-30T14:39:14.690Z,1.88
2022-09-30T14:41:43.701Z,2.40
2022-09-30T14:44:15.956Z,2.53
2022-09-30T14:46:47.202Z,2.47
2022-09-30T14:49:17.229Z,2.40
2022-09-30T14:51:48.587Z,3.22
2022-09-30T14:54:23.100Z,2.72
2022-09-30T14:56:54.880Z,2.88
2022-09-30T14:59:27.276Z,2.30
2022-09-30T15:01:58.353Z,2.00
2022-09-30T15:04:27.938Z,2.78
2022-09-30T15:06:57.001Z,2.92
2022-09-30T15:09:31.107Z,2.60
2022-09-30T15:14:32.934Z,2.38
2022-09-30T15:17:06.212Z,3.08
2022-09-30T15:19:35.819Z,2.65
2022-09-30T15:22:05.295Z,3.20
2022-09-30T15:24:35.535Z,2.63
2022-09-30T15:27:04.212Z,2.40
2022-09-30T15:29:33.115Z,2.53
2022-09-30T15:32:02.781Z,2.20
2022-09-30T15:34:31.530Z,2.65
2022-09-30T15:37:07.000Z,1.70
2022-09-30T15:39:56.219Z,2.00
2022-09-30T15:42:31.176Z,2.05
2022-09-30T15:45:00.457Z,1.63
2022-09-30T15:47:29.252Z,2.35
2022-09-30T15:49:57.445Z,4.07
2022-09-30T15:52:37.616Z,2.15
2022-09-30T15:55:38.828Z,1.95
2022-09-30T15:58:38.988Z,2.03
2022-09-30T16:01:21.667Z,1.73
2022-09-30T16:03:54.466Z,2.08
2022-09-30T16:06:35.828Z,1.90
2022-09-30T16:09:06.953Z,1.90
2022-09-30T16:11:36.941Z,2.40
2022-09-30T16:14:09.852Z,1.70
2022-09-30T16:16:39.822Z,2.60
2022-09-30T16:19:08.259Z,3.33
2022-09-30T16:21:45.047Z,3.08
2022-09-30T16:24:44.532Z,2.60
2022-09-30T16:27:30.489Z,2.40
2022-09-30T16:30:01.478Z,2.50
2022-09-30T16:32:31.576Z,2.83
2022-09-30T16:35:00.057Z,2.95
2022-09-30T16:37:28.308Z,3.00
2022-09-30T16:39:58.304Z,2.80
2022-09-30T16:42:27.388Z,3.35
2022-09-30T16:44:56.070Z,3.10
2022-09-30T16:47:26.765Z,3.20
2022-09-30T16:49:55.483Z,3.97
2022-09-30T16:52:24.887Z,3.90
2022-09-30T16:54:53.931Z,3.00
2022-09-30T16:57:22.268Z,3.40
2022-09-30T16:59:50.752Z,3.80
2022-09-30T17:02:19.029Z,4.85
2022-09-30T17:04:48.860Z,4.13
2022-09-30T17:07:17.655Z,4.60
2022-09-30T17:09:47.979Z,5.32
2022-09-30T17:12:16.424Z,4.00
2022-09-30T17:14:45.024Z,4.22
2022-09-30T17:17:14.154Z,6.40
2022-09-30T17:19:43.765Z,5.28
2022-09-30T17:22:13.752Z,4.72
2022-09-30T17:24:42.571Z,4.35
2022-09-30T17:27:11.441Z,4.65
2022-09-30T17:29:42.252Z,4.53
2022-09-30T17:32:11.306Z,5.75
2022-09-30T17:34:42.403Z,5.90
2022-09-30T17:37:13.607Z,5.53
2022-09-30T17:39:42.136Z,4.07
2022-09-30T17:42:44.050Z,3.42
2022-09-30T17:45:12.538Z,6.68
2022-09-30T17:47:41.744Z,6.20
2022-09-30T17:50:13.195Z,11.38
2022-09-30T17:52:43.504Z,9.57
2022-09-30T17:55:11.942Z,5.50
2022-09-30T17:57:40.348Z,4.47
2022-09-30T18:00:09.787Z,4.05
2022-09-30T18:02:38.730Z,3.83
2022-09-30T18:05:07.776Z,4.68
2022-09-30T18:07:36.335Z,3.85
2022-09-30T18:10:08.437Z,5.03
2022-09-30T18:12:36.913Z,4.15
2022-09-30T18:15:05.794Z,4.03
2022-09-30T18:17:34.299Z,4.85
2022-09-30T18:20:03.147Z,4.53
2022-09-30T18:22:31.392Z,4.82
2022-09-30T18:25:25.742Z,5.63
2022-09-30T18:27:57.832Z,4.90
2022-09-30T18:30:27.093Z,4.85
2022-09-30T18:32:56.285Z,4.10
2022-09-30T18:35:25.424Z,4.40
2022-09-30T18:37:54.056Z,4.90
2022-09-30T18:40:22.988Z,5.10
2022-09-30T18:42:58.917Z,6.15
2022-09-30T18:45:27.437Z,5.55
2022-09-30T18:47:56.824Z,5.25
2022-09-30T18:50:25.610Z,4.40
2022-09-30T18:52:54.314Z,4.47
2022-09-30T18:55:22.808Z,5.60
2022-09-30T18:57:51.625Z,4.90
2022-09-30T19:00:21.803Z,4.65
2022-09-30T19:02:50.982Z,5.78
2022-09-30T19:05:19.631Z,4.60
2022-09-30T19:07:48.079Z,5.43
2022-09-30T19:10:16.873Z,5.13
2022-09-30T19:12:45.997Z,5.18
2022-09-30T19:15:16.601Z,6.10
2022-09-30T19:17:46.951Z,6.88
2022-09-30T19:20:17.384Z,6.57
2022-09-30T19:22:51.483Z,6.70
2022-09-30T19:27:49.590Z,15.55
2022-09-30T19:30:20.010Z,10.18
2022-09-30T19:32:51.766Z,12.70
2022-09-30T19:35:31.079Z,15.95
2022-09-30T19:38:04.506Z,21.92
2022-09-30T19:43:07.138Z,18.55
2022-09-30T19:45:35.722Z,23.35
2022-09-30T19:48:05.732Z,16.77
2022-09-30T19:50:34.872Z,31.50
2022-09-30T19:53:03.494Z,26.40
2022-09-30T19:55:40.173Z,15.13
2022-09-30T19:58:14.308Z,20.38
2022-09-30T20:00:47.072Z,24.00
2022-09-30T20:03:17.110Z,28.33
2022-09-30T20:05:45.763Z,29.92
2022-09-30T20:08:14.116Z,33.72
2022-09-30T20:10:42.546Z,32.75
2022-09-30T20:13:11.116Z,32.83
2022-09-30T20:15:51.373Z,37.20
2022-09-30T20:18:21.311Z,28.48
2022-09-30T20:20:49.748Z,20.45
2022-09-30T20:23:19.513Z,15.18
2022-09-30T20:25:48.195Z,23.45
2022-09-30T20:28:16.944Z,23.05
2022-09-30T20:30:46.192Z,29.08
2022-09-30T20:33:17.560Z,28.13
2022-09-30T20:35:48.896Z,34.70
2022-09-30T20:38:25.040Z,17.42
2022-09-30T20:40:56.983Z,41.08
2022-09-30T20:43:28.278Z,17.77
2022-09-30T20:45:59.911Z,19.45
2022-09-30T20:48:32.696Z,15.95
2022-09-30T20:51:07.392Z,25.17
2022-09-30T20:53:39.774Z,20.38
2022-09-30T20:56:09.633Z,17.85
2022-09-30T20:58:38.530Z,40.92
2022-09-30T21:01:08.881Z,22.83
2022-09-30T21:03:37.610Z,23.33
2022-09-30T21:06:08.290Z,30.75
2022-09-30T21:08:39.049Z,24.10
2022-09-30T21:11:07.705Z,22.05
2022-09-30T21:13:38.451Z,19.90
2022-09-30T21:16:08.759Z,16.33
2022-09-30T21:18:37.294Z,18.52
2022-09-30T21:21:07.473Z,16.35
2022-09-30T21:23:38.357Z,17.20
2022-09-30T21:26:07.715Z,22.05
2022-09-30T21:28:37.262Z,15.63
2022-09-30T21:31:06.377Z,109.05
2022-09-30T21:33:35.459Z,50.80
2022-09-30T21:36:05.034Z,194.07
2022-09-30T21:38:36.065Z,174.25
2022-09-30T21:41:06.114Z,37.75
2022-09-30T21:43:35.134Z,40.83
2022-09-30T21:46:04.831Z,32.28
2022-09-30T21:48:34.231Z,52.58
2022-09-30T21:51:11.911Z,28.58
2022-09-30T21:53:41.927Z,31.95
2022-09-30T21:56:15.061Z,66.03
2022-09-30T21:58:44.545Z,164.33
2022-09-30T22:01:13.629Z,72.35
2022-09-30T22:03:43.059Z,37.20
2022-09-30T22:06:12.024Z,33.75
2022-09-30T22:08:43.295Z,61.75
2022-09-30T22:11:12.665Z,61.88
2022-09-30T22:13:41.842Z,61.70
2022-09-30T22:16:11.030Z,78.38
2022-09-30T22:18:40.538Z,146.57
2022-09-30T22:21:11.038Z,145.32
2022-09-30T22:23:40.020Z,115.78
2022-09-30T22:26:11.225Z,106.65
2022-09-30T22:28:41.548Z,162.05
2022-09-30T22:31:16.638Z,102.53
2022-09-30T22:34:04.191Z,97.30
2022-09-30T22:36:49.751Z,127.10
2022-09-30T22:39:19.020Z,184.63
2022-09-30T22:41:50.722Z,169.75
2022-09-30T22:44:19.303Z,183.38
2022-09-30T22:46:48.470Z,227.25
2022-09-30T22:49:17.140Z,152.00
2022-09-30T22:51:46.877Z,284.08
2022-09-30T22:54:17.136Z,295.83
2022-09-30T22:56:46.135Z,352.25
2022-09-30T22:59:16.579Z,281.05
2022-09-30T23:01:50.472Z,126.63
2022-09-30T23:04:20.303Z,185.30
2022-09-30T23:06:52.144Z,141.48
2022-09-30T23:09:22.389Z,154.35
2022-09-30T23:11:54.772Z,108.97
2022-09-30T23:14:25.999Z,236.50
2022-09-30T23:16:54.673Z,107.22
2022-09-30T23:19:24.918Z,103.68
2022-09-30T23:21:54.112Z,209.43
2022-09-30T23:24:23.417Z,114.07
2022-09-30T23:26:52.493Z,142.57
2022-09-30T23:29:20.803Z,170.43
2022-09-30T23:31:51.121Z,94.50
2022-09-30T23:34:20.408Z,30.65
2022-09-30T23:36:49.088Z,28.73
2022-09-30T23:39:19.754Z,25.15
2022-09-30T23:41:48.245Z,29.13
2022-09-30T23:44:19.191Z,88.88
2022-09-30T23:47:02.216Z,320.65
2022-09-30T23:49:35.484Z,139.35
2022-09-30T23:52:09.218Z,92.88
2022-09-30T23:54:41.245Z,100.30
2022-09-30T23:57:10.930Z,77.78
2022-09-30T23:59:39.725Z,169.05
